Time;durP1;ratioP1;P1;durP2;ratioP2;P2;SDS_P1;SDS_P2;PMS_P1;PMS_P2;Temp;Humidity;BMP_temperature;BMP_pressure;BME280_temperature;BME280_humidity;BME280_pressure;Samples;Min_cycle;Max_cycle;Signal;HPM_P1;HPM_P2
2024/03/12 00:02:11;;;;;;;25.20;13.48;;;;;;;11.94;100.00;99135.50;5135145;27;20407;-48
2024/03/12 00:04:40;;;;;;;21.50;13.65;;;;;;;11.90;100.00;99135.88;5135116;27;20053;-48
2024/03/12 00:07:09;;;;;;;24.33;14.30;;;;;;;11.89;100.00;99137.72;5135556;27;20134;-47
2024/03/12 00:09:38;;;;;;;24.85;14.57;;;;;;;11.72;100.00;99131.06;5136635;27;20057;-50
2024/03/12 00:12:06;;;;;;;23.48;14.07;;;;;;;11.81;100.00;99134.81;5137455;27;20043;-49
2024/03/12 00:14:35;;;;;;;24.58;14.35;;;;;;;11.85;100.00;99138.94;5138707;27;20047;-49
2024/03/12 00:17:06;;;;;;;22.02;13.70;;;;;;;11.80;100.00;99142.97;5137740;27;20059;-49
2024/03/12 00:19:34;;;;;;;22.40;13.45;;;;;;;11.75;100.00;99141.47;5137131;27;20047;-49
2024/03/12 00:22:02;;;;;;;24.52;14.40;;;;;;;11.74;100.00;99144.28;5135785;27;20043;-49
2024/03/12 00:24:30;;;;;;;23.23;13.30;;;;;;;11.86;100.00;99137.09;5135139;27;20044;-47
2024/03/12 00:26:59;;;;;;;26.38;15.25;;;;;;;11.75;100.00;99140.63;5134761;27;20107;-46
2024/03/12 00:29:28;;;;;;;23.02;13.50;;;;;;;11.75;100.00;99135.28;5134899;27;20054;-48
2024/03/12 00:31:57;;;;;;;23.10;14.13;;;;;;;11.81;100.00;99132.16;5134752;27;20437;-50
2024/03/12 00:34:27;;;;;;;26.35;14.60;;;;;;;11.73;100.00;99138.09;5134571;27;20507;-46
2024/03/12 00:36:55;;;;;;;24.33;14.77;;;;;;;11.73;100.00;99145.25;5134519;27;20053;-47
2024/03/12 00:39:25;;;;;;;25.02;14.70;;;;;;;11.73;100.00;99143.44;5134652;27;20051;-46
2024/03/12 00:41:56;;;;;;;26.30;14.63;;;;;;;11.71;100.00;99152.56;5134743;27;20043;-47
2024/03/12 00:44:24;;;;;;;22.88;14.38;;;;;;;11.60;100.00;99147.25;5134580;27;20039;-49
2024/03/12 00:46:54;;;;;;;24.65;14.50;;;;;;;11.56;100.00;99151.13;5134513;27;20050;-47
2024/03/12 00:49:22;;;;;;;25.55;15.07;;;;;;;11.62;100.00;99145.28;5134288;27;20043;-47
2024/03/12 00:51:52;;;;;;;25.02;14.13;;;;;;;11.56;100.00;99153.78;5134300;27;20047;-48
2024/03/12 00:54:21;;;;;;;27.58;14.70;;;;;;;11.56;100.00;99157.31;5134310;27;20080;-48
2024/03/12 00:56:50;;;;;;;27.02;13.95;;;;;;;11.53;100.00;99146.88;5134256;27;20078;-45
2024/03/12 00:59:18;;;;;;;22.23;13.27;;;;;;;11.68;100.00;99152.81;5134080;27;20129;-45
2024/03/12 01:01:48;;;;;;;21.70;12.95;;;;;;;11.57;100.00;99152.81;5133410;27;20100;-46
2024/03/12 01:04:17;;;;;;;23.67;14.00;;;;;;;11.47;100.00;99152.72;5134025;27;20093;-48
2024/03/12 01:06:45;;;;;;;26.55;14.52;;;;;;;11.49;100.00;99147.28;5133958;27;20536;-47
2024/03/12 01:09:17;;;;;;;23.50;13.50;;;;;;;11.38;100.00;99158.81;5133975;27;20134;-49
2024/03/12 01:11:46;;;;;;;21.13;12.40;;;;;;;11.18;100.00;99155.06;5133760;27;20079;-49
2024/03/12 01:14:14;;;;;;;20.35;11.88;;;;;;;11.29;100.00;99157.75;5133734;27;20057;-59
2024/03/12 01:16:44;;;;;;;18.90;11.95;;;;;;;11.34;100.00;99168.88;5133854;27;20061;-46
2024/03/12 01:19:13;;;;;;;20.48;12.20;;;;;;;11.23;100.00;99160.06;5133767;27;20135;-49
2024/03/12 01:21:42;;;;;;;23.13;12.75;;;;;;;11.39;100.00;99171.22;5133778;27;20127;-47
2024/03/12 01:24:12;;;;;;;22.23;11.82;;;;;;;11.08;100.00;99172.78;5133752;27;20054;-52
2024/03/12 01:26:42;;;;;;;24.38;11.93;;;;;;;11.31;100.00;99171.81;5133994;27;20047;-49
2024/03/12 01:29:10;;;;;;;21.73;11.57;;;;;;;11.40;100.00;99168.41;5133481;27;20427;-50
2024/03/12 01:31:38;;;;;;;20.05;11.80;;;;;;;11.33;100.00;99169.88;5133842;27;20043;-47
2024/03/12 01:34:07;;;;;;;18.92;11.25;;;;;;;11.26;100.00;99175.81;5133535;27;20536;-48
2024/03/12 01:36:35;;;;;;;20.40;10.68;;;;;;;11.30;100.00;99172.78;5133487;27;20054;-48
2024/03/12 01:39:07;;;;;;;16.95;10.32;;;;;;;11.23;100.00;99171.56;5133571;27;20138;-44
2024/03/12 01:41:41;;;;;;;14.85;9.25;;;;;;;11.13;100.00;99181.28;5133446;27;20100;-45
2024/03/12 01:44:12;;;;;;;15.02;8.63;;;;;;;11.01;100.00;99184.94;5136599;27;20050;-47
2024/03/12 01:46:40;;;;;;;14.82;7.85;;;;;;;11.10;100.00;99189.56;5135276;27;20043;-50
2024/03/12 01:49:09;;;;;;;11.23;6.95;;;;;;;11.15;100.00;99192.69;5133944;27;20090;-52
2024/03/12 01:51:38;;;;;;;11.57;7.00;;;;;;;11.12;100.00;99182.25;5133187;27;20054;-51
2024/03/12 01:54:08;;;;;;;9.35;6.10;;;;;;;11.10;100.00;99182.38;5133112;27;20385;-47
2024/03/12 01:56:37;;;;;;;11.40;7.15;;;;;;;10.95;100.00;99188.94;5132986;27;20047;-47
2024/03/12 01:59:06;;;;;;;8.75;5.75;;;;;;;11.05;100.00;99184.56;5133087;27;20046;-49
2024/03/12 02:01:36;;;;;;;10.35;5.75;;;;;;;11.05;100.00;99191.72;5133009;27;20492;-50
2024/03/12 02:04:05;;;;;;;8.18;4.88;;;;;;;11.01;100.00;99191.13;5134721;27;20047;-49
2024/03/12 02:06:33;;;;;;;6.75;5.05;;;;;;;11.03;100.00;99196.34;5135410;27;20353;-49
2024/03/12 02:09:04;;;;;;;8.50;4.63;;;;;;;10.91;100.00;99197.31;5133118;27;20054;-48
2024/03/12 02:11:32;;;;;;;8.57;4.28;;;;;;;10.99;100.00;99197.53;5114242;27;20054;-46
2024/03/12 02:14:01;;;;;;;6.45;3.83;;;;;;;10.86;100.00;99200.31;5131879;27;20039;-47
2024/03/12 02:16:29;;;;;;;6.30;4.45;;;;;;;10.91;100.00;99194.63;5132735;27;20536;-46
2024/03/12 02:18:59;;;;;;;6.30;4.20;;;;;;;11.01;100.00;99206.28;5132772;27;20039;-49
2024/03/12 02:21:27;;;;;;;6.18;4.13;;;;;;;10.99;100.00;99208.19;5132513;27;20047;-48
2024/03/12 02:23:57;;;;;;;7.10;4.32;;;;;;;11.06;100.00;99202.25;5132716;27;20050;-49
2024/03/12 02:26:26;;;;;;;7.35;3.70;;;;;;;10.98;100.00;99201.16;5132740;27;20133;-47
2024/03/12 02:28:54;;;;;;;5.93;3.72;;;;;;;11.00;100.00;99204.56;5132498;27;20043;-49
2024/03/12 02:31:22;;;;;;;5.38;3.70;;;;;;;10.98;100.00;99210.03;5132281;27;20062;-49
2024/03/12 02:33:52;;;;;;;5.78;3.60;;;;;;;10.90;100.00;99217.75;5132268;27;20058;-50
2024/03/12 02:36:20;;;;;;;6.40;3.75;;;;;;;10.83;100.00;99214.75;5132382;27;20047;-49
2024/03/12 02:38:49;;;;;;;7.18;3.58;;;;;;;10.95;100.00;99220.09;5132187;27;20056;-49
2024/03/12 02:41:21;;;;;;;5.90;3.88;;;;;;;10.88;100.00;99214.38;5132212;27;20394;-49
2024/03/12 02:43:51;;;;;;;4.97;3.67;;;;;;;11.04;100.00;99219.38;5132186;27;20134;-47
2024/03/12 02:46:21;;;;;;;6.63;4.20;;;;;;;10.97;100.00;99218.16;5132149;27;20047;-50
2024/03/12 02:48:51;;;;;;;7.00;4.28;;;;;;;10.91;100.00;99224.84;5132431;27;20039;-50
2024/03/12 02:51:19;;;;;;;5.50;4.00;;;;;;;10.95;100.00;99222.75;5132041;27;20074;-47
2024/03/12 02:53:48;;;;;;;8.35;4.57;;;;;;;10.92;100.00;99221.19;5132195;27;20069;-46
2024/03/12 02:56:16;;;;;;;8.65;5.03;;;;;;;10.65;100.00;99225.97;5131960;27;20054;-47
2024/03/12 02:58:47;;;;;;;9.32;5.47;;;;;;;10.47;100.00;99226.41;5131760;27;20042;-48
2024/03/12 03:01:15;;;;;;;8.18;5.43;;;;;;;10.62;100.00;99227.06;5131843;27;20055;-50
2024/03/12 03:03:44;;;;;;;10.32;5.70;;;;;;;10.40;100.00;99227.00;5132023;27;20049;-52
2024/03/12 03:06:12;;;;;;;8.70;5.35;;;;;;;10.45;100.00;99231.03;5131715;27;20463;-51
2024/03/12 03:08:41;;;;;;;9.20;6.00;;;;;;;10.35;100.00;99231.84;5131941;27;20047;-51
2024/03/12 03:11:09;;;;;;;9.23;5.47;;;;;;;10.50;100.00;99231.50;5131878;27;20086;-48
2024/03/12 03:13:37;;;;;;;7.38;5.20;;;;;;;10.63;100.00;99235.94;5131920;27;20076;-45
2024/03/12 03:16:08;;;;;;;8.68;5.55;;;;;;;10.70;100.00;99235.31;5132186;27;20468;-49
2024/03/12 03:18:37;;;;;;;7.97;5.10;;;;;;;10.71;100.00;99238.81;5132301;27;20479;-48
2024/03/12 03:21:07;;;;;;;7.47;5.03;;;;;;;10.67;100.00;99243.56;5132452;28;20054;-48
2024/03/12 03:23:40;;;;;;;8.00;5.07;;;;;;;10.53;100.00;99251.78;5131791;28;20415;-48
2024/03/12 03:26:08;;;;;;;7.38;4.38;;;;;;;10.45;100.00;99255.00;5134204;27;20047;-50
2024/03/12 03:28:37;;;;;;;7.07;4.05;;;;;;;10.25;100.00;99259.19;5136226;27;20050;-49
2024/03/12 03:31:10;;;;;;;8.38;4.10;;;;;;;10.27;100.00;99262.56;5136115;27;20043;-50
2024/03/12 03:33:39;;;;;;;6.00;3.88;;;;;;;10.34;100.00;99259.47;5135766;27;20048;-48
2024/03/12 03:36:07;;;;;;;6.80;3.70;;;;;;;10.36;100.00;99265.50;5135735;27;20119;-48
2024/03/12 03:38:40;;;;;;;5.53;3.22;;;;;;;10.42;100.00;99262.38;5135728;27;20050;-52
2024/03/12 03:41:09;;;;;;;6.28;3.33;;;;;;;10.55;100.00;99268.50;5135776;27;20055;-47
2024/03/12 03:43:39;;;;;;;4.80;2.92;;;;;;;10.30;100.00;99270.31;5135703;27;20074;-48
2024/03/12 03:46:09;;;;;;;5.68;3.00;;;;;;;10.24;100.00;99262.81;5135642;27;20043;-47
2024/03/12 03:48:37;;;;;;;4.78;2.90;;;;;;;10.31;100.00;99268.50;5135508;27;20058;-47
2024/03/12 03:51:06;;;;;;;4.03;2.55;;;;;;;10.20;100.00;99261.28;5135441;27;20051;-49
2024/03/12 03:53:34;;;;;;;4.30;2.72;;;;;;;10.20;100.00;99260.44;5135378;27;20475;-48
2024/03/12 03:56:03;;;;;;;5.50;2.67;;;;;;;10.13;100.00;99265.34;5135678;27;20063;-48
2024/03/12 03:58:31;;;;;;;5.28;2.60;;;;;;;10.23;100.00;99274.44;5135473;27;20081;-48
2024/03/12 04:01:00;;;;;;;4.93;2.42;;;;;;;10.28;100.00;99264.25;5135074;27;20140;-48
2024/03/12 04:03:30;;;;;;;6.22;2.67;;;;;;;10.13;100.00;99265.34;5135390;27;20175;-46
2024/03/12 04:05:59;;;;;;;4.53;2.70;;;;;;;10.18;100.00;99270.38;5135117;27;20055;-47
2024/03/12 04:08:27;;;;;;;5.15;2.70;;;;;;;10.20;100.00;99266.63;5135199;27;20043;-48
2024/03/12 04:10:55;;;;;;;4.60;2.63;;;;;;;10.07;100.00;99260.50;5135388;27;20054;-48
2024/03/12 04:13:24;;;;;;;5.22;2.95;;;;;;;10.00;100.00;99259.25;5135223;27;20047;-49
2024/03/12 04:15:52;;;;;;;4.10;2.60;;;;;;;10.07;100.00;99265.84;5135853;27;20533;-47
2024/03/12 04:18:20;;;;;;;5.57;2.53;;;;;;;10.09;100.00;99269.22;5135522;27;20063;-50
2024/03/12 04:20:53;;;;;;;5.47;2.88;;;;;;;10.06;100.00;99264.13;5135270;27;20113;-47
2024/03/12 04:23:21;;;;;;;4.93;2.67;;;;;;;10.01;100.00;99260.94;5135244;27;20050;-47
2024/03/12 04:25:53;;;;;;;4.53;2.40;;;;;;;10.07;100.00;99264.97;5135063;27;20079;-47
2024/03/12 04:28:22;;;;;;;4.85;2.75;;;;;;;10.21;100.00;99265.66;5134917;27;20043;-49
2024/03/12 04:30:51;;;;;;;4.50;2.65;;;;;;;10.25;100.00;99256.50;5134842;27;20043;-48
2024/03/12 04:33:19;;;;;;;5.05;2.80;;;;;;;10.31;100.00;99268.50;5134899;27;20433;-47
2024/03/12 04:35:48;;;;;;;5.85;2.72;;;;;;;10.20;100.00;99277.28;5134883;27;20495;-49
2024/03/12 04:38:18;;;;;;;5.47;2.67;;;;;;;10.40;100.00;99285.63;5133673;27;20111;-47
2024/03/12 04:40:47;;;;;;;4.57;2.30;;;;;;;10.18;100.00;99283.69;5134609;27;20043;-49
2024/03/12 04:43:18;;;;;;;5.40;2.72;;;;;;;10.03;100.00;99291.81;5134653;27;20411;-49
2024/03/12 04:45:46;;;;;;;4.43;2.45;;;;;;;9.93;100.00;99292.63;5134470;27;20043;-48
2024/03/12 04:48:15;;;;;;;3.80;2.30;;;;;;;10.01;100.00;99285.75;5134683;27;20081;-46
2024/03/12 04:50:43;;;;;;;4.28;2.35;;;;;;;10.01;100.00;99292.91;5134708;27;20583;-47
2024/03/12 04:53:12;;;;;;;6.63;2.65;;;;;;;9.90;100.00;99298.16;5134242;27;20066;-46
2024/03/12 04:55:42;;;;;;;3.92;2.28;;;;;;;9.85;100.00;99297.66;5134272;27;20047;-46
2024/03/12 04:58:10;;;;;;;5.18;2.95;;;;;;;10.01;100.00;99298.25;5134410;27;20112;-48
2024/03/12 05:00:38;;;;;;;5.35;2.67;;;;;;;10.15;100.00;99298.09;5134327;27;20470;-48
2024/03/12 05:03:06;;;;;;;5.07;2.40;;;;;;;10.29;100.00;99307.75;5134302;27;20483;-47
2024/03/12 05:05:35;;;;;;;4.53;2.70;;;;;;;10.27;100.00;99304.38;5134177;27;20043;-48
2024/03/12 05:08:03;;;;;;;4.68;2.83;;;;;;;10.22;100.00;99304.69;5133889;27;20699;-50
2024/03/12 05:10:31;;;;;;;4.93;2.83;;;;;;;10.36;100.00;99308.16;5133780;27;20047;-48
2024/03/12 05:13:01;;;;;;;5.63;2.97;;;;;;;10.42;100.00;99311.25;5133695;27;20050;-47
2024/03/12 05:15:30;;;;;;;4.70;2.83;;;;;;;10.41;100.00;99311.31;5134054;27;20119;-51
2024/03/12 05:17:59;;;;;;;5.10;2.78;;;;;;;10.37;100.00;99312.53;5133727;27;20084;-49
2024/03/12 05:20:29;;;;;;;4.45;2.58;;;;;;;10.15;100.00;99316.75;5133713;27;20047;-49
2024/03/12 05:22:58;;;;;;;6.15;2.60;;;;;;;10.09;100.00;99317.19;5133581;27;20074;-50
2024/03/12 05:25:38;;;;;;;4.63;2.78;;;;;;;10.07;100.00;99324.44;5133585;27;20051;-49
2024/03/12 05:28:10;;;;;;;6.57;2.83;;;;;;;10.21;100.00;99326.94;5133786;27;20452;-47
2024/03/12 05:30:40;;;;;;;5.60;2.85;;;;;;;10.23;100.00;99325.06;5135123;27;20088;-47
2024/03/12 05:33:14;;;;;;;6.30;3.10;;;;;;;10.25;100.00;99338.28;5134946;27;20126;-48
2024/03/12 05:35:47;;;;;;;5.22;2.80;;;;;;;10.13;100.00;99328.47;5133379;27;20043;-48
2024/03/12 05:38:32;;;;;;;;;;;;;;;10.21;100.00;99336.75;5134006;27;20479;-48
2024/03/12 05:49:19;;;;;;;7.18;2.90;;;;;;;10.09;100.00;99343.84;5133060;27;20043;-49
2024/03/12 05:51:47;;;;;;;6.38;2.92;;;;;;;10.02;100.00;99340.75;5132999;27;20047;-49
2024/03/12 05:54:16;;;;;;;5.45;2.97;;;;;;;10.03;100.00;99345.13;5133013;27;20071;-51
2024/03/12 05:56:44;;;;;;;6.93;3.15;;;;;;;10.21;100.00;99345.59;5132769;27;20066;-49
2024/03/12 05:59:14;;;;;;;4.95;2.97;;;;;;;10.28;100.00;99340.72;5132821;27;20463;-49
2024/03/12 06:01:43;;;;;;;5.38;3.03;;;;;;;10.23;100.00;99346.41;5132560;27;20137;-48
2024/03/12 06:04:11;;;;;;;4.07;2.13;;;;;;;9.94;100.00;99351.13;5132941;27;20065;-47
2024/03/12 06:06:40;;;;;;;5.75;2.50;;;;;;;9.98;100.00;99354.41;5132757;27;20047;-47
2024/03/12 06:09:09;;;;;;;4.93;2.50;;;;;;;10.22;100.00;99347.31;5132393;27;20043;-47
2024/03/12 06:11:37;;;;;;;4.50;2.47;;;;;;;10.33;100.00;99346.56;5132383;27;20403;-51
2024/03/12 06:14:07;;;;;;;5.15;2.67;;;;;;;10.34;100.00;99352.75;5131919;27;20055;-46
2024/03/12 06:16:36;;;;;;;4.32;2.47;;;;;;;10.22;100.00;99363.31;5132528;27;20074;-49
2024/03/12 06:19:05;;;;;;;5.05;2.50;;;;;;;10.25;100.00;99365.78;5132161;27;20488;-47
2024/03/12 06:21:33;;;;;;;4.03;2.17;;;;;;;10.34;100.00;99358.94;5132291;27;20694;-50
2024/03/12 06:24:02;;;;;;;6.32;2.70;;;;;;;10.50;100.00;99356.81;5132505;27;20053;-49
2024/03/12 06:26:32;;;;;;;5.63;2.30;;;;;;;10.44;100.00;99364.44;5132314;27;20051;-49
2024/03/12 06:29:01;;;;;;;6.07;2.70;;;;;;;10.49;100.00;99372.94;5132359;27;20050;-49
2024/03/12 06:31:34;;;;;;;8.60;2.88;;;;;;;10.61;100.00;99366.69;5132406;27;20047;-51
2024/03/12 06:34:04;;;;;;;5.68;2.58;;;;;;;10.55;100.00;99370.69;5132090;27;20051;-49
2024/03/12 06:36:32;;;;;;;6.35;2.95;;;;;;;10.65;100.00;99368.19;5132153;27;20191;-49
2024/03/12 06:39:01;;;;;;;5.60;3.05;;;;;;;10.71;100.00;99367.72;5132273;27;20051;-49
2024/03/12 06:41:31;;;;;;;6.75;3.17;;;;;;;10.62;100.00;99367.56;5132393;27;20137;-49
2024/03/12 06:44:00;;;;;;;6.30;3.10;;;;;;;10.35;100.00;99373.09;5132373;27;20083;-49
2024/03/12 06:46:28;;;;;;;6.55;3.08;;;;;;;10.45;100.00;99376.81;5132193;27;20071;-47
2024/03/12 06:48:58;;;;;;;7.53;3.00;;;;;;;10.54;100.00;99382.31;5132194;27;20053;-47
2024/03/12 06:51:31;;;;;;;6.85;3.53;;;;;;;10.87;100.00;99381.59;5132179;27;20066;-50
2024/03/12 06:54:00;;;;;;;6.00;3.20;;;;;;;11.40;100.00;99392.69;5131677;27;20176;-51
2024/03/12 06:56:31;;;;;;;5.63;3.10;;;;;;;11.75;100.00;99387.25;5130539;27;20402;-49
2024/03/12 06:58:59;;;;;;;5.05;2.63;;;;;;;11.74;100.00;99385.56;5131691;27;20051;-46
2024/03/12 07:01:29;;;;;;;5.30;2.40;;;;;;;11.73;100.00;99383.88;5130075;27;20082;-49
2024/03/12 07:04:00;;;;;;;5.45;2.67;;;;;;;11.78;100.00;99390.69;5131350;27;20043;-48
2024/03/12 07:06:29;;;;;;;7.97;2.47;;;;;;;11.57;100.00;99390.50;5131810;27;20071;-51
2024/03/12 07:09:08;;;;;;;4.07;2.20;;;;;;;11.30;100.00;99390.84;5131773;27;20047;-48
2024/03/12 07:11:41;;;;;;;;;;;;;;;11.43;100.00;99397.78;5132324;27;20100;-48
2024/03/12 07:14:23;;;;;;;5.82;2.65;;;;;;;11.57;100.00;99398.53;5131934;27;19923;-51
2024/03/12 07:16:51;;;;;;;4.35;2.58;;;;;;;11.66;100.00;99409.34;5131802;27;20125;-48
2024/03/12 07:19:22;;;;;;;4.70;2.47;;;;;;;11.58;100.00;99410.91;5131725;27;20393;-47
2024/03/12 07:21:54;;;;;;;3.90;2.20;;;;;;;11.34;100.00;99414.50;5131592;27;20047;-46
2024/03/12 07:24:23;;;;;;;5.10;2.60;;;;;;;11.10;100.00;99411.06;5131955;27;20528;-48
2024/03/12 07:26:51;;;;;;;4.22;2.42;;;;;;;11.18;100.00;99413.97;5131684;28;20047;-47
2024/03/12 07:29:19;;;;;;;5.30;2.40;;;;;;;11.23;100.00;99422.50;5131622;28;20368;-48
2024/03/12 07:31:47;;;;;;;3.45;2.05;;;;;;;11.29;100.00;99419.38;5131510;27;20493;-48
2024/03/12 07:34:16;;;;;;;7.03;2.63;;;;;;;11.40;100.00;99414.06;5131730;27;20043;-49
2024/03/12 07:36:45;;;;;;;5.45;2.70;;;;;;;11.40;100.00;99422.06;5131623;28;20043;-49
2024/03/12 07:39:24;;;;;;;5.43;2.40;;;;;;;11.37;100.00;99416.94;5131211;27;20043;-48
2024/03/12 07:41:54;;;;;;;6.05;2.88;;;;;;;11.26;100.00;99419.59;5131427;28;20480;-46
2024/03/12 07:44:23;;;;;;;5.40;3.00;;;;;;;11.39;100.00;99422.19;5131730;27;20051;-46
2024/03/12 07:46:52;;;;;;;6.35;2.65;;;;;;;11.50;100.00;99419.53;5131948;28;20544;-48
2024/03/12 07:49:21;;;;;;;4.97;3.00;;;;;;;11.58;100.00;99426.94;5131863;27;20039;-47
2024/03/12 07:51:50;;;;;;;7.03;2.90;;;;;;;11.52;100.00;99422.09;5131296;27;20078;-49
2024/03/12 07:54:20;;;;;;;5.60;2.85;;;;;;;11.33;100.00;99428.84;5131460;27;20062;-47
2024/03/12 07:56:51;;;;;;;7.25;3.58;;;;;;;11.39;100.00;99427.53;5131299;28;20062;-47
2024/03/12 07:59:22;;;;;;;5.32;2.53;;;;;;;11.37;100.00;99435.63;5131362;27;20047;-47
2024/03/12 08:01:52;;;;;;;3.83;2.20;;;;;;;11.20;100.00;99437.91;5131579;27;20051;-48
2024/03/12 08:04:22;;;;;;;3.95;2.20;;;;;;;11.21;100.00;99442.28;5131393;27;20047;-46
2024/03/12 08:06:50;;;;;;;5.47;2.15;;;;;;;11.24;100.00;99439.38;5131688;27;20137;-47
2024/03/12 08:09:20;;;;;;;4.20;2.05;;;;;;;11.02;100.00;99437.47;5131220;27;20043;-50
2024/03/12 08:11:49;;;;;;;3.58;2.20;;;;;;;11.17;100.00;99442.47;5131495;27;20087;-48
2024/03/12 08:14:17;;;;;;;7.35;2.78;;;;;;;11.25;100.00;99449.06;5134861;27;20139;-55
2024/03/12 08:16:46;;;;;;;4.68;2.08;;;;;;;10.96;100.00;99443.25;5135077;27;20090;-50
2024/03/12 08:19:15;;;;;;;4.95;2.45;;;;;;;11.09;100.00;99450.22;5135124;27;20487;-47
2024/03/12 08:21:43;;;;;;;5.00;2.53;;;;;;;10.99;100.00;99451.00;5135043;27;20082;-47
2024/03/12 08:24:11;;;;;;;4.63;2.42;;;;;;;11.07;100.00;99453.97;5135042;27;20039;-48
2024/03/12 08:26:42;;;;;;;5.25;2.35;;;;;;;11.15;100.00;99457.78;5135090;27;20043;-46
2024/03/12 08:29:11;;;;;;;5.60;2.40;;;;;;;11.17;100.00;99458.50;5134681;27;20047;-46
2024/03/12 08:31:39;;;;;;;5.93;2.53;;;;;;;11.27;100.00;99460.47;5135164;27;20058;-47
2024/03/12 08:34:18;;;;;;;5.90;2.42;;;;;;;11.26;100.00;99458.78;5135400;27;20150;-47
2024/03/12 08:36:48;;;;;;;7.18;3.20;;;;;;;11.40;100.00;99464.78;5135114;27;20047;-47
2024/03/12 08:39:16;;;;;;;8.73;3.53;;;;;;;11.59;100.00;99458.03;5134143;27;20058;-50
2024/03/12 08:41:46;;;;;;;6.60;3.15;;;;;;;11.67;100.00;99456.47;5133266;27;20043;-50
2024/03/12 08:44:14;;;;;;;7.40;3.72;;;;;;;11.63;100.00;99462.16;5134823;27;20406;-49
2024/03/12 08:46:43;;;;;;;6.47;3.72;;;;;;;11.64;100.00;99458.53;5135096;27;20043;-46
2024/03/12 08:49:11;;;;;;;5.20;2.88;;;;;;;11.74;100.00;99459.50;5134820;27;20193;-50
2024/03/12 08:51:40;;;;;;;7.07;2.97;;;;;;;11.54;100.00;99468.22;5134580;27;20138;-46
2024/03/12 08:54:09;;;;;;;6.10;3.20;;;;;;;11.72;100.00;99461.47;5134642;27;20043;-47
2024/03/12 08:56:37;;;;;;;6.20;3.10;;;;;;;11.77;100.00;99461.94;5134295;27;20127;-51
2024/03/12 08:59:08;;;;;;;6.53;3.35;;;;;;;11.81;100.00;99470.63;5134490;27;20047;-46
2024/03/12 09:01:38;;;;;;;6.85;3.00;;;;;;;11.69;100.00;99470.56;5134303;27;20062;-48
2024/03/12 09:04:09;;;;;;;7.45;3.72;;;;;;;11.65;100.00;99478.94;5134257;27;20051;-46
2024/03/12 09:06:40;;;;;;;7.15;3.58;;;;;;;11.54;100.00;99481.56;5134245;27;20137;-48
2024/03/12 09:09:09;;;;;;;6.18;3.42;;;;;;;11.56;100.00;99480.47;5134016;27;20047;-47
2024/03/12 09:11:38;;;;;;;18.02;4.78;;;;;;;11.69;100.00;99477.75;5134319;27;20049;-47
2024/03/12 09:14:08;;;;;;;6.90;3.45;;;;;;;11.73;100.00;99480.03;5134363;27;20169;-49
2024/03/12 09:16:37;;;;;;;7.03;3.88;;;;;;;11.75;100.00;99483.44;5134039;27;20058;-47
2024/03/12 09:19:06;;;;;;;7.45;3.95;;;;;;;11.78;100.00;99481.53;5134121;27;20078;-46
2024/03/12 09:21:34;;;;;;;18.05;4.25;;;;;;;11.92;100.00;99479.50;5134234;27;20047;-46
2024/03/12 09:24:05;;;;;;;8.50;3.78;;;;;;;12.00;100.00;99493.13;5133624;27;20043;-50
2024/03/12 09:26:34;;;;;;;7.03;3.28;;;;;;;11.99;100.00;99486.06;5133942;27;20050;-50
2024/03/12 09:29:05;;;;;;;7.72;3.03;;;;;;;12.11;100.00;99489.59;5133403;27;20069;-48
2024/03/12 09:31:36;;;;;;;12.23;3.85;;;;;;;12.14;100.00;99493.84;5133686;27;20039;-47
2024/03/12 09:34:06;;;;;;;7.43;3.40;;;;;;;11.90;100.00;99497.47;5132853;27;20538;-47
2024/03/12 09:36:35;;;;;;;5.03;3.15;;;;;;;12.01;100.00;99492.16;5132894;27;20061;-48
2024/03/12 09:39:10;;;;;;;6.93;3.80;;;;;;;12.21;100.00;99495.06;5133029;27;20050;-49
2024/03/12 09:41:42;;;;;;;12.13;3.63;;;;;;;12.16;100.00;99497.25;5132906;27;20126;-48
2024/03/12 09:44:12;;;;;;;7.65;4.00;;;;;;;12.08;100.00;99505.03;5132868;27;20047;-47
2024/03/12 09:46:42;;;;;;;6.80;3.10;;;;;;;11.80;100.00;99507.19;5132777;27;20043;-49
2024/03/12 09:49:13;;;;;;;7.38;3.53;;;;;;;11.72;100.00;99498.88;5133004;27;20039;-47
2024/03/12 09:51:41;;;;;;;6.45;3.35;;;;;;;11.53;100.00;99502.09;5133212;27;20104;-48
2024/03/12 09:54:11;;;;;;;6.38;3.33;;;;;;;11.75;100.00;99503.97;5132860;27;20043;-46
2024/03/12 09:56:40;;;;;;;5.85;3.20;;;;;;;11.87;100.00;99508.41;5132547;27;20053;-49
2024/03/12 09:59:09;;;;;;;6.45;3.40;;;;;;;11.80;100.00;99509.84;5132292;27;20134;-47
2024/03/12 10:01:38;;;;;;;5.88;3.70;;;;;;;11.70;100.00;99509.66;5132392;27;20051;-48
2024/03/12 10:04:09;;;;;;;7.35;3.63;;;;;;;11.58;100.00;99513.28;5132836;27;20047;-48
2024/03/12 10:06:38;;;;;;;6.72;3.35;;;;;;;11.56;100.00;99519.69;5133020;27;20050;-47
2024/03/12 10:09:10;;;;;;;5.60;3.28;;;;;;;11.80;100.00;99515.19;5132512;27;20130;-48
2024/03/12 10:11:44;;;;;;;5.80;3.63;;;;;;;11.92;100.00;99511.56;5130362;27;20054;-48
2024/03/12 10:14:13;;;;;;;5.13;3.20;;;;;;;12.02;100.00;99511.72;5130788;27;20519;-48
2024/03/12 10:16:41;;;;;;;7.10;3.28;;;;;;;12.14;100.00;99509.88;5130465;27;20157;-47
2024/03/12 10:19:15;;;;;;;9.02;3.67;;;;;;;12.13;100.00;99513.53;5131279;27;20126;-48
2024/03/12 10:21:44;;;;;;;5.90;2.97;;;;;;;12.00;100.00;99514.50;5128192;27;20043;-45
2024/03/12 10:24:14;;;;;;;7.07;3.28;;;;;;;11.94;100.00;99509.63;5131654;27;20058;-47
2024/03/12 10:26:44;;;;;;;5.00;2.92;;;;;;;11.81;100.00;99518.72;5131248;27;20047;-47
2024/03/12 10:29:13;;;;;;;5.93;2.60;;;;;;;11.76;100.00;99521.69;5131296;27;20134;-48
2024/03/12 10:31:43;;;;;;;7.32;3.17;;;;;;;11.80;100.00;99522.34;5129345;27;20053;-46
2024/03/12 10:34:18;;;;;;;6.30;3.17;;;;;;;11.73;100.00;99521.94;5130524;27;20853;-49
2024/03/12 10:36:49;;;;;;;5.13;2.85;;;;;;;11.74;100.00;99523.63;5130272;27;20486;-48
2024/03/12 10:39:27;;;;;;;6.68;3.03;;;;;;;11.63;100.00;99527.13;5131324;27;20039;-46
2024/03/12 10:41:57;;;;;;;6.10;3.05;;;;;;;11.78;100.00;99526.94;5129879;27;20047;-46
2024/03/12 10:44:27;;;;;;;5.93;3.13;;;;;;;11.82;100.00;99526.59;5130839;27;20035;-47
2024/03/12 10:46:58;;;;;;;5.00;2.88;;;;;;;11.93;100.00;99523.97;5131545;27;20104;-45
2024/03/12 10:49:29;;;;;;;8.55;3.10;;;;;;;12.08;100.00;99527.28;5130692;27;20116;-46
2024/03/12 10:51:58;;;;;;;6.80;3.22;;;;;;;12.13;100.00;99524.22;5130243;27;20047;-47
2024/03/12 10:54:28;;;;;;;10.65;3.45;;;;;;;12.26;100.00;99527.66;5131008;27;20447;-48
2024/03/12 10:57:02;;;;;;;5.93;3.13;;;;;;;12.30;100.00;99529.13;5131405;27;20058;-46
2024/03/12 10:59:33;;;;;;;4.88;2.78;;;;;;;12.41;100.00;99531.78;5131218;27;20043;-47
2024/03/12 11:02:02;;;;;;;6.70;3.45;;;;;;;12.38;100.00;99531.19;5128797;27;20061;-49
2024/03/12 11:04:38;;;;;;;8.07;3.22;;;;;;;12.31;100.00;99533.50;5131105;27;20047;-47
2024/03/12 11:07:10;;;;;;;6.18;3.17;;;;;;;12.23;100.00;99530.56;5130533;27;20047;-47
2024/03/12 11:09:40;;;;;;;5.05;2.67;;;;;;;12.18;100.00;99530.09;5130405;27;20070;-49
2024/03/12 11:12:09;;;;;;;5.57;2.63;;;;;;;12.17;100.00;99533.72;5126357;27;20047;-47
2024/03/12 11:14:38;;;;;;;4.60;2.90;;;;;;;12.01;100.00;99542.94;5129850;27;20138;-47
2024/03/12 11:17:25;;;;;;;4.63;2.78;;;;;;;12.14;100.00;99536.63;5130389;28;20065;-46
2024/03/12 11:19:57;;;;;;;5.47;3.20;;;;;;;12.28;100.00;99528.38;5129303;28;20092;-48
2024/03/12 11:22:31;;;;;;;4.80;2.97;;;;;;;12.37;100.00;99533.03;5130137;27;20047;-47
2024/03/12 11:25:04;;;;;;;6.50;2.88;;;;;;;12.49;100.00;99532.03;5129939;27;20522;-45
2024/03/12 11:27:34;;;;;;;5.20;2.60;;;;;;;12.54;100.00;99529.84;5130646;28;20144;-46
2024/03/12 11:30:11;;;;;;;4.47;2.42;;;;;;;12.65;100.00;99531.69;5128969;28;20510;-46
2024/03/12 11:32:41;;;;;;;5.72;2.40;;;;;;;12.74;100.00;99527.38;5130177;28;20039;-48
2024/03/12 11:35:29;;;;;;;5.45;2.65;;;;;;;12.76;100.00;99531.66;5111932;28;20469;-47
2024/03/12 11:38:03;;;;;;;4.47;2.50;;;;;;;12.74;100.00;99524.72;5130734;28;20054;-48
2024/03/12 11:40:37;;;;;;;5.60;2.88;;;;;;;12.57;100.00;99534.97;5128779;28;20146;-48
2024/03/12 11:43:11;;;;;;;5.07;2.70;;;;;;;12.28;100.00;99528.38;5130682;27;20117;-46
2024/03/12 11:45:41;;;;;;;4.60;2.50;;;;;;;12.39;100.00;99531.06;5130112;27;20424;-47